createdAt,value
2018-06-14T00:02:16.468Z,57.50
2018-06-14T00:04:45.080Z,57.50
2018-06-14T00:07:13.799Z,57.50
2018-06-14T00:09:42.797Z,57.50
2018-06-14T00:12:11.331Z,57.50
2018-06-14T00:14:39.861Z,57.50
2018-06-14T00:17:08.500Z,57.50
2018-06-14T00:19:37.008Z,57.50
2018-06-14T00:22:05.684Z,57.40
2018-06-14T00:24:34.447Z,57.50
2018-06-14T00:27:03.032Z,57.60
2018-06-14T00:29:31.566Z,57.60
2018-06-14T00:32:00.099Z,57.60
2018-06-14T00:34:28.640Z,57.80
2018-06-14T00:39:25.401Z,57.90
2018-06-14T00:41:53.919Z,57.90
2018-06-14T00:44:22.459Z,57.90
2018-06-14T00:46:51.114Z,58.00
2018-06-14T00:49:19.688Z,58.20
2018-06-14T00:54:16.893Z,58.40
2018-06-14T00:56:57.795Z,58.70
2018-06-14T00:59:26.390Z,58.70
2018-06-14T01:01:55.020Z,58.80
2018-06-14T01:04:23.564Z,58.90
2018-06-14T01:06:52.274Z,59.00
2018-06-14T01:09:20.803Z,59.10
2018-06-14T01:11:49.374Z,59.20
2018-06-14T01:14:17.978Z,59.00
2018-06-14T01:16:47.002Z,59.00
2018-06-14T01:19:15.681Z,59.10
2018-06-14T01:21:44.325Z,59.20
2018-06-14T01:24:12.940Z,59.10
2018-06-14T01:29:09.671Z,59.10
2018-06-14T01:31:38.140Z,60.20
2018-06-14T01:34:06.641Z,60.10
2018-06-14T01:36:35.169Z,60.30
2018-06-14T01:39:04.656Z,60.20
2018-06-14T01:41:33.199Z,59.80
2018-06-14T01:44:01.753Z,59.20
2018-06-14T01:46:30.271Z,59.10
2018-06-14T01:48:58.791Z,59.00
2018-06-14T01:51:27.356Z,59.00
2018-06-14T01:53:55.860Z,58.90
2018-06-14T01:56:24.440Z,59.00
2018-06-14T01:58:52.980Z,59.00
2018-06-14T02:03:50.176Z,58.90
2018-06-14T02:06:19.336Z,58.80
2018-06-14T02:08:48.130Z,58.80
2018-06-14T02:11:16.739Z,58.80
2018-06-14T02:13:45.433Z,59.10
2018-06-14T02:18:42.736Z,59.50
2018-06-14T02:21:11.287Z,59.50
2018-06-14T02:23:39.817Z,59.50
2018-06-14T02:26:08.366Z,59.50
2018-06-14T02:28:36.880Z,59.50
2018-06-14T02:31:05.373Z,59.40
2018-06-14T02:33:34.014Z,59.30
2018-06-14T02:36:02.611Z,59.30
2018-06-14T02:38:31.119Z,59.40
2018-06-14T02:40:59.866Z,59.40
2018-06-14T02:43:50.915Z,59.60
2018-06-14T02:46:49.596Z,59.30
2018-06-14T02:53:10.877Z,59.50
2018-06-14T04:02:45.353Z,61.20
2018-06-14T04:05:14.362Z,61.10
2018-06-14T04:07:56.067Z,61.00
2018-06-14T04:10:59.219Z,61.30
2018-06-14T04:16:28.703Z,61.30
2018-06-14T04:18:58.541Z,61.40
2018-06-14T04:23:03.470Z,61.60
2018-06-14T04:35:55.468Z,61.70
2018-06-14T04:41:41.064Z,61.90
2018-06-14T04:51:24.483Z,62.30
2018-06-14T04:53:52.961Z,63.00
2018-06-14T04:56:21.558Z,63.10
2018-06-14T04:58:50.109Z,63.00
2018-06-14T05:01:18.642Z,63.00
2018-06-14T05:03:47.124Z,62.80
2018-06-14T05:06:16.602Z,63.70
2018-06-14T05:08:45.151Z,61.40
2018-06-14T05:11:13.617Z,62.10
2018-06-14T05:13:42.189Z,62.00
2018-06-14T05:16:11.287Z,62.20
2018-06-14T05:18:39.795Z,62.30
2018-06-14T05:21:08.464Z,62.10
2018-06-14T05:23:37.132Z,62.50
2018-06-14T05:26:05.821Z,62.20
2018-06-14T05:28:34.716Z,63.00
2018-06-14T05:31:03.496Z,63.00
2018-06-14T05:33:32.793Z,62.80
2018-06-14T05:36:01.634Z,62.80
2018-06-14T05:38:31.070Z,62.80
2018-06-14T05:40:59.626Z,62.90
2018-06-14T05:43:28.757Z,62.90
2018-06-14T05:45:57.255Z,63.40
2018-06-14T05:48:25.785Z,63.60
2018-06-14T05:50:54.319Z,63.70
2018-06-14T05:53:22.836Z,63.80
2018-06-14T05:55:51.367Z,63.40
2018-06-14T05:58:19.878Z,63.30
2018-06-14T06:00:48.741Z,62.90
2018-06-14T06:03:17.308Z,62.70
2018-06-14T06:05:46.042Z,62.70
2018-06-14T06:08:14.614Z,62.40
2018-06-14T06:10:43.753Z,62.30
2018-06-14T06:13:12.317Z,62.50
2018-06-14T06:15:40.868Z,62.40
2018-06-14T06:18:09.393Z,62.40
2018-06-14T06:20:37.893Z,62.30
2018-06-14T06:23:06.477Z,62.20
2018-06-14T06:25:35.144Z,62.20
2018-06-14T06:28:03.982Z,62.30
2018-06-14T06:30:33.369Z,62.00
2018-06-14T06:33:06.370Z,61.40
2018-06-14T07:03:40.698Z,57.50
2018-06-14T07:14:15.282Z,57.30
2018-06-14T07:16:45.303Z,56.70
2018-06-14T07:19:25.290Z,56.10
2018-06-14T07:21:53.913Z,55.60
2018-06-14T07:24:22.493Z,55.50
2018-06-14T07:26:51.001Z,55.50
2018-06-14T07:29:19.641Z,55.10
2018-06-14T07:31:58.765Z,54.50
2018-06-14T07:34:27.960Z,54.50
2018-06-14T07:36:58.313Z,54.10
2018-06-14T07:55:39.521Z,54.20
2018-06-14T07:58:15.949Z,53.90
2018-06-14T08:00:45.896Z,54.20
2018-06-14T08:03:59.375Z,53.30
2018-06-14T08:12:04.773Z,53.40
2018-06-14T08:28:54.537Z,52.60
2018-06-14T08:46:12.088Z,52.40
2018-06-14T09:53:02.173Z,51.70
2018-06-14T09:55:44.231Z,48.40
2018-06-14T11:27:21.850Z,46.10
2018-06-14T11:31:45.620Z,44.50
2018-06-14T11:39:27.330Z,44.20
2018-06-14T11:46:26.646Z,44.10
2018-06-14T12:41:24.347Z,43.70
2018-06-14T12:43:54.067Z,42.70
2018-06-14T12:46:23.119Z,42.40
2018-06-14T12:48:52.025Z,42.50
2018-06-14T12:51:20.959Z,41.70
2018-06-14T12:53:49.477Z,43.10
2018-06-14T12:56:19.397Z,41.90
2018-06-14T12:58:48.411Z,41.30
2018-06-14T13:01:17.218Z,41.10
2018-06-14T13:03:46.019Z,41.90
2018-06-14T13:06:14.782Z,40.40
2018-06-14T13:08:43.279Z,41.00
2018-06-14T13:11:11.984Z,41.70
2018-06-14T13:13:40.475Z,41.40
2018-06-14T13:16:08.979Z,40.10
2018-06-14T13:18:37.623Z,40.60
2018-06-14T13:21:06.161Z,40.90
2018-06-14T13:23:35.144Z,41.00
2018-06-14T13:26:03.664Z,41.00
2018-06-14T13:28:32.159Z,40.20
2018-06-14T13:31:00.730Z,39.90
2018-06-14T13:33:29.392Z,41.00
2018-06-14T13:35:58.049Z,40.10
2018-06-14T13:38:26.706Z,39.90
2018-06-14T13:40:55.203Z,40.30
2018-06-14T13:43:24.058Z,40.00
2018-06-14T13:45:52.832Z,40.60
2018-06-14T13:50:49.592Z,40.00
2018-06-14T13:53:19.386Z,37.90
2018-06-14T13:55:48.990Z,39.60
2018-06-14T13:58:17.981Z,39.60
2018-06-14T14:00:47.224Z,39.50
2018-06-14T14:03:15.785Z,39.60
2018-06-14T14:05:45.066Z,39.10
2018-06-14T14:08:13.580Z,39.30
2018-06-14T14:10:42.063Z,38.70
2018-06-14T14:13:10.531Z,38.10
2018-06-14T14:15:39.033Z,38.10
2018-06-14T14:18:07.605Z,37.60
2018-06-14T14:20:36.454Z,38.30
2018-06-14T14:23:05.806Z,39.10
2018-06-14T14:25:35.050Z,39.00
2018-06-14T14:30:31.999Z,38.30
2018-06-14T14:35:29.572Z,37.00
2018-06-14T14:37:58.113Z,37.10
2018-06-14T14:40:26.638Z,37.00
2018-06-14T14:42:55.168Z,37.20
2018-06-14T14:45:24.688Z,37.10
2018-06-14T14:47:53.448Z,36.80
2018-06-14T14:50:22.088Z,36.90
2018-06-14T14:52:50.726Z,37.90
2018-06-14T14:55:19.212Z,36.40
2018-06-14T14:57:53.210Z,36.70
2018-06-14T15:07:59.665Z,37.90
2018-06-14T15:10:28.358Z,38.10
2018-06-14T15:12:56.930Z,37.10
2018-06-14T15:15:25.462Z,37.30
2018-06-14T15:17:54.201Z,36.90
2018-06-14T15:20:22.826Z,37.10
2018-06-14T15:22:53.981Z,36.50
2018-06-14T15:25:22.602Z,37.30
2018-06-14T15:27:51.511Z,38.30
2018-06-14T15:30:20.130Z,38.40
2018-06-14T15:32:48.691Z,37.50
2018-06-14T15:35:17.994Z,38.20
2018-06-14T15:37:46.560Z,37.80
2018-06-14T16:26:56.516Z,36.10
2018-06-14T16:29:27.841Z,40.80
2018-06-14T16:31:56.379Z,39.70
2018-06-14T16:34:25.025Z,39.80
2018-06-14T16:36:54.476Z,40.10
2018-06-14T16:39:23.112Z,40.20
2018-06-14T16:41:51.612Z,40.20
2018-06-14T16:44:20.151Z,39.90
2018-06-14T16:46:49.262Z,39.90
2018-06-14T16:49:17.983Z,40.30
2018-06-14T16:51:46.691Z,40.80
2018-06-14T16:54:16.782Z,40.70
2018-06-14T16:56:45.475Z,41.30
2018-06-14T16:59:15.909Z,41.50
2018-06-14T17:01:46.565Z,41.30
2018-06-14T17:04:19.344Z,41.30
2018-06-14T17:06:49.677Z,41.60
2018-06-14T17:12:15.364Z,41.50
2018-06-14T17:14:44.707Z,41.10
2018-06-14T17:17:15.022Z,41.70
2018-06-14T17:19:44.270Z,42.00
2018-06-14T17:22:13.498Z,42.20
2018-06-14T17:24:43.915Z,42.30
2018-06-14T17:27:12.741Z,42.50
2018-06-14T17:29:41.390Z,42.60
2018-06-14T17:32:10.132Z,43.10
2018-06-14T17:34:40.041Z,43.10
2018-06-14T17:37:08.931Z,43.10
2018-06-14T17:39:37.493Z,43.20
2018-06-14T17:42:06.595Z,43.00
2018-06-14T17:44:35.153Z,43.20
2018-06-14T17:47:04.616Z,43.20
2018-06-14T17:49:33.148Z,43.70
2018-06-14T17:52:01.688Z,43.60
2018-06-14T17:54:30.517Z,43.60
2018-06-14T17:57:00.122Z,43.80
2018-06-14T17:59:29.108Z,43.70
2018-06-14T18:01:57.643Z,43.90
2018-06-14T18:04:26.302Z,44.20
2018-06-14T18:06:55.094Z,44.20
2018-06-14T18:09:23.563Z,44.10
2018-06-14T18:11:52.161Z,44.20
2018-06-14T18:14:20.895Z,44.20
2018-06-14T18:16:50.013Z,44.40
2018-06-14T18:19:20.049Z,44.20
2018-06-14T18:21:48.663Z,44.50
2018-06-14T18:24:18.002Z,44.60
2018-06-14T18:26:47.490Z,44.40
2018-06-14T18:29:19.368Z,44.60
2018-06-14T18:31:50.603Z,44.70
2018-06-14T18:34:19.503Z,44.80
2018-06-14T18:36:48.235Z,44.80
2018-06-14T18:39:16.746Z,45.00
2018-06-14T18:41:45.302Z,45.10
2018-06-14T18:44:13.930Z,45.20
2018-06-14T18:46:43.082Z,46.20
2018-06-14T18:49:11.598Z,47.30
2018-06-14T18:51:40.274Z,48.20
2018-06-14T18:54:08.760Z,49.30
2018-06-14T18:56:37.314Z,50.40
2018-06-14T18:59:40.276Z,51.40
2018-06-14T19:02:15.030Z,52.30
2018-06-14T19:04:46.011Z,52.70
2018-06-14T19:07:14.773Z,53.60
2018-06-14T19:09:43.440Z,54.20
2018-06-14T19:12:13.396Z,54.40
2018-06-14T19:14:42.070Z,54.80
2018-06-14T19:17:11.298Z,55.10
2018-06-14T19:19:42.457Z,55.50
2018-06-14T19:22:12.198Z,55.70
2018-06-14T19:24:41.129Z,55.90
2018-06-14T19:27:10.609Z,56.10
2018-06-14T19:29:40.206Z,56.50
2018-06-14T19:32:11.255Z,56.70
2018-06-14T19:37:11.813Z,56.90
2018-06-14T19:39:41.630Z,57.30
2018-06-14T19:42:13.645Z,57.30
2018-06-14T19:44:44.497Z,57.50
2018-06-14T19:47:13.084Z,57.60
2018-06-14T19:49:41.901Z,57.70
2018-06-14T19:52:11.836Z,57.70
2018-06-14T19:54:41.830Z,57.90
2018-06-14T19:57:10.899Z,57.90
2018-06-14T19:59:42.089Z,58.00
2018-06-14T20:02:13.136Z,58.20
2018-06-14T20:04:46.712Z,58.40
2018-06-14T20:07:15.244Z,58.50
2018-06-14T20:09:44.208Z,58.40
2018-06-14T20:12:13.517Z,58.40
2018-06-14T20:14:46.136Z,58.40
2018-06-14T20:17:15.641Z,58.60
2018-06-14T20:19:45.063Z,58.70
2018-06-14T20:22:14.512Z,58.80
2018-06-14T20:24:43.182Z,58.70
2018-06-14T20:27:13.907Z,58.70
2018-06-14T20:29:43.430Z,58.80
2018-06-14T20:32:13.513Z,58.70
2018-06-14T20:34:43.554Z,59.00
2018-06-14T20:37:13.108Z,58.80
2018-06-14T20:39:41.721Z,59.00
2018-06-14T20:42:12.686Z,59.00
2018-06-14T20:44:44.004Z,59.30
2018-06-14T20:47:14.515Z,59.10
2018-06-14T20:49:45.173Z,59.10
2018-06-14T20:52:14.099Z,59.40
2018-06-14T20:54:44.039Z,59.40
2018-06-14T20:57:13.396Z,59.40
2018-06-14T20:59:44.129Z,59.40
2018-06-14T21:02:16.399Z,59.50
2018-06-14T21:04:46.584Z,59.60
2018-06-14T21:07:17.477Z,59.90
2018-06-14T21:09:47.002Z,59.80
2018-06-14T21:12:16.157Z,59.90
2018-06-14T21:14:44.853Z,59.80
2018-06-14T21:17:14.778Z,60.00
2018-06-14T21:19:44.202Z,60.00
2018-06-14T21:22:13.507Z,60.20
2018-06-14T21:24:43.908Z,60.40
2018-06-14T21:27:12.630Z,60.30
2018-06-14T21:29:41.215Z,60.60
2018-06-14T21:32:11.524Z,60.50
2018-06-14T21:34:43.976Z,61.10
2018-06-14T21:37:13.501Z,61.00
2018-06-14T21:39:42.104Z,61.20
2018-06-14T21:42:10.729Z,61.40
2018-06-14T21:47:11.256Z,61.30
2018-06-14T21:49:40.638Z,61.60
2018-06-14T21:52:10.066Z,61.70
2018-06-14T21:54:41.535Z,61.50
2018-06-14T21:57:15.696Z,61.50
2018-06-14T21:59:47.063Z,61.80
2018-06-14T22:02:15.678Z,62.00
2018-06-14T22:04:45.016Z,62.20
2018-06-14T22:07:15.078Z,62.20
2018-06-14T22:12:17.329Z,62.10
2018-06-14T22:14:47.398Z,62.40
2018-06-14T22:17:18.559Z,62.10
2018-06-14T22:19:47.982Z,62.00
2018-06-14T22:22:17.132Z,62.20
2018-06-14T22:24:46.292Z,62.20
2018-06-14T22:27:15.552Z,62.10
2018-06-14T22:29:44.850Z,61.90
2018-06-14T22:32:16.795Z,62.00
2018-06-14T22:34:56.495Z,62.00
2018-06-14T22:37:26.819Z,62.00
2018-06-14T22:39:55.576Z,61.90
2018-06-14T22:42:24.896Z,62.30
2018-06-14T22:44:54.462Z,62.20
2018-06-14T22:47:23.673Z,61.90
2018-06-14T22:49:52.182Z,61.70
2018-06-14T22:52:43.959Z,61.90
2018-06-14T22:55:15.741Z,61.90
2018-06-14T22:57:45.070Z,61.70
2018-06-14T23:01:20.937Z,61.80
2018-06-14T23:03:50.650Z,61.70
2018-06-14T23:06:20.114Z,61.50
2018-06-14T23:08:48.692Z,61.90
2018-06-14T23:11:20.382Z,61.70
2018-06-14T23:13:50.665Z,61.40
2018-06-14T23:16:19.355Z,61.50
2018-06-14T23:18:48.923Z,61.40
2018-06-14T23:21:17.580Z,61.30
2018-06-14T23:23:49.420Z,61.20
2018-06-14T23:26:20.431Z,61.30
2018-06-14T23:28:51.421Z,61.50
2018-06-14T23:31:21.183Z,61.50
2018-06-14T23:33:50.971Z,61.60
2018-06-14T23:45:55.220Z,62.10
2018-06-14T23:48:30.876Z,62.10
2018-06-14T23:53:27.797Z,62.70
2018-06-14T23:55:56.308Z,62.80
2018-06-14T23:58:25.743Z,62.90
